XNO457R LKPR-EDDH
Flight info
| Callsign | XNO457R |
|---|---|
| Flight time | 0h 59m |
| Altitude | 36000 |
| Route | VENOX DCT DEKOV Y621 ESLOR M748 RARUP RARUP6A |
| Aircraft | A321/M-SDE3FGHIRWY/LB1 |
Departure
| Time | 2026-05-06 18:53 |
|---|---|
| Airport | Václav Havel Airport Prague (LKPR) |
Arrival
| Time | 2026-05-06 19:52 |
|---|---|
| Airport | Hamburg Helmut Schmidt Airport (EDDH) |
| Time | Latitude | Longitude | Altitude | Speed | Heading |
|---|---|---|---|---|---|
| 2026-05-06 18:17 | 50.10573 | 14.26354 | 1172 ft | 0 kts | 34° |
| 2026-05-06 18:41 | 50.10558 | 14.26339 | 1171 ft | 4 kts | 28° |
| 2026-05-06 18:42 | 50.10534 | 14.26323 | 1172 ft | 4 kts | 12° |
| 2026-05-06 18:42 | 50.10509 | 14.26321 | 1172 ft | 4 kts | 335° |
| 2026-05-06 18:42 | 50.10497 | 14.26332 | 1172 ft | 0 kts | 304° |
| 2026-05-06 18:46 | 50.10507 | 14.26311 | 1171 ft | 4 kts | 304° |
| 2026-05-06 18:47 | 50.10524 | 14.26267 | 1173 ft | 6 kts | 296° |
| 2026-05-06 18:47 | 50.10537 | 14.26204 | 1174 ft | 7 kts | 279° |
| 2026-05-06 18:47 | 50.10534 | 14.26128 | 1176 ft | 7 kts | 262° |
| 2026-05-06 18:47 | 50.10533 | 14.26114 | 1176 ft | 1 kts | 261° |
| 2026-05-06 18:48 | 50.10530 | 14.26084 | 1172 ft | 2 kts | 261° |
| 2026-05-06 18:48 | 50.10527 | 14.26057 | 1175 ft | 2 kts | 261° |
| 2026-05-06 18:48 | 50.10523 | 14.26022 | 1175 ft | 5 kts | 261° |
| 2026-05-06 18:48 | 50.10519 | 14.25973 | 1172 ft | 4 kts | 267° |
| 2026-05-06 18:49 | 50.10530 | 14.25918 | 1175 ft | 7 kts | 297° |
| 2026-05-06 18:49 | 50.10562 | 14.25837 | 1174 ft | 11 kts | 302° |
| 2026-05-06 18:49 | 50.10589 | 14.25770 | 1174 ft | 7 kts | 302° |
| 2026-05-06 18:49 | 50.10618 | 14.25695 | 1174 ft | 10 kts | 300° |
| 2026-05-06 18:50 | 50.10637 | 14.25593 | 1176 ft | 10 kts | 259° |
| 2026-05-06 18:50 | 50.10607 | 14.25503 | 1173 ft | 9 kts | 246° |
| 2026-05-06 18:50 | 50.10591 | 14.25410 | 1174 ft | 9 kts | 257° |
| 2026-05-06 18:50 | 50.10586 | 14.25376 | 1175 ft | 3 kts | 258° |
| 2026-05-06 18:51 | 50.10580 | 14.25334 | 1176 ft | 5 kts | 258° |
| 2026-05-06 18:51 | 50.10579 | 14.25320 | 1176 ft | 1 kts | 258° |
| 2026-05-06 18:51 | 50.10577 | 14.25310 | 1176 ft | 0 kts | 258° |
| 2026-05-06 18:52 | 50.10575 | 14.25291 | 1173 ft | 7 kts | 258° |
| 2026-05-06 18:52 | 50.10536 | 14.25175 | 1176 ft | 9 kts | 211° |
| 2026-05-06 18:52 | 50.10481 | 14.25206 | 1173 ft | 10 kts | 129° |
| 2026-05-06 18:52 | 50.10351 | 14.25475 | 1175 ft | 73 kts | 126° |
| 2026-05-06 18:53 | 50.09872 | 14.26469 | 1180 ft | 152 kts | 127° |
| 2026-05-06 18:53 | 50.09214 | 14.27852 | 1994 ft | 161 kts | 124° |
| 2026-05-06 18:53 | 50.08543 | 14.29238 | 3001 ft | 160 kts | 126° |
| 2026-05-06 18:53 | 50.07873 | 14.30613 | 3540 ft | 169 kts | 127° |
| 2026-05-06 18:54 | 50.07118 | 14.32164 | 3826 ft | 191 kts | 127° |
| 2026-05-06 18:54 | 50.06272 | 14.33903 | 4102 ft | 213 kts | 128° |
| 2026-05-06 18:54 | 50.05324 | 14.35851 | 4384 ft | 238 kts | 128° |
| 2026-05-06 18:54 | 50.04272 | 14.38010 | 4816 ft | 261 kts | 128° |
| 2026-05-06 18:55 | 50.03152 | 14.40318 | 5026 ft | 271 kts | 128° |
| 2026-05-06 18:55 | 50.02007 | 14.42674 | 5831 ft | 273 kts | 129° |
| 2026-05-06 18:55 | 50.00876 | 14.45047 | 6696 ft | 275 kts | 126° |
| 2026-05-06 18:55 | 50.00217 | 14.47881 | 7440 ft | 288 kts | 97° |
| 2026-05-06 18:56 | 50.00539 | 14.50981 | 8158 ft | 299 kts | 66° |
| 2026-05-06 18:56 | 50.01844 | 14.53514 | 8891 ft | 306 kts | 38° |
| 2026-05-06 18:56 | 50.03556 | 14.55514 | 9658 ft | 310 kts | 35° |
| 2026-05-06 18:56 | 50.05330 | 14.57534 | 10144 ft | 326 kts | 35° |
| 2026-05-06 18:57 | 50.07233 | 14.59670 | 10364 ft | 349 kts | 32° |
| 2026-05-06 18:57 | 50.09446 | 14.61481 | 10541 ft | 370 kts | 20° |
| 2026-05-06 18:57 | 50.11982 | 14.62589 | 10785 ft | 386 kts | 7° |
| 2026-05-06 18:57 | 50.14674 | 14.62829 | 11361 ft | 389 kts | 353° |
| 2026-05-06 18:58 | 50.17314 | 14.61978 | 12033 ft | 388 kts | 336° |
| 2026-05-06 18:58 | 50.19668 | 14.59972 | 12735 ft | 386 kts | 319° |
| 2026-05-06 18:58 | 50.21757 | 14.57332 | 13456 ft | 388 kts | 317° |
| 2026-05-06 18:58 | 50.23849 | 14.54633 | 14112 ft | 392 kts | 317° |
| 2026-05-06 18:59 | 50.25957 | 14.51899 | 14752 ft | 396 kts | 316° |
| 2026-05-06 18:59 | 50.28085 | 14.49134 | 15397 ft | 400 kts | 316° |
| 2026-05-06 18:59 | 50.30237 | 14.46342 | 16041 ft | 404 kts | 316° |
| 2026-05-06 18:59 | 50.32410 | 14.43522 | 16684 ft | 408 kts | 316° |
| 2026-05-06 19:00 | 50.33858 | 14.41638 | 17108 ft | 411 kts | 316° |
| 2026-05-06 19:00 | 50.36822 | 14.37784 | 17934 ft | 417 kts | 316° |
| 2026-05-06 19:00 | 50.38302 | 14.35861 | 18290 ft | 419 kts | 316° |
| 2026-05-06 19:00 | 50.40561 | 14.32926 | 18806 ft | 423 kts | 316° |
| 2026-05-06 19:01 | 50.42834 | 14.29972 | 19304 ft | 427 kts | 316° |
| 2026-05-06 19:01 | 50.45130 | 14.26984 | 19808 ft | 430 kts | 316° |
| 2026-05-06 19:01 | 50.47438 | 14.23968 | 20316 ft | 434 kts | 316° |
| 2026-05-06 19:01 | 50.49768 | 14.20927 | 20810 ft | 438 kts | 317° |
| 2026-05-06 19:02 | 50.52322 | 14.18244 | 21271 ft | 446 kts | 328° |
| 2026-05-06 19:02 | 50.55197 | 14.16293 | 21759 ft | 455 kts | 339° |
| 2026-05-06 19:02 | 50.58307 | 14.15173 | 22219 ft | 463 kts | 350° |
| 2026-05-06 19:02 | 50.61541 | 14.14960 | 22668 ft | 470 kts | 1° |
| 2026-05-06 19:03 | 50.64802 | 14.15608 | 23103 ft | 475 kts | 7° |
| 2026-05-06 19:03 | 50.68076 | 14.16387 | 23528 ft | 477 kts | 5° |
| 2026-05-06 19:03 | 50.71388 | 14.16418 | 23907 ft | 476 kts | 350° |
| 2026-05-06 19:03 | 50.74576 | 14.15145 | 24290 ft | 471 kts | 334° |
| 2026-05-06 19:04 | 50.77458 | 14.12744 | 24673 ft | 468 kts | 325° |
| 2026-05-06 19:04 | 50.80266 | 14.10108 | 25082 ft | 470 kts | 325° |
| 2026-05-06 19:04 | 50.83081 | 14.07461 | 25480 ft | 472 kts | 325° |
| 2026-05-06 19:04 | 50.85911 | 14.04803 | 25884 ft | 475 kts | 325° |
| 2026-05-06 19:05 | 50.88760 | 14.02128 | 26290 ft | 477 kts | 325° |
| 2026-05-06 19:05 | 50.91621 | 13.99444 | 26687 ft | 479 kts | 325° |
| 2026-05-06 19:05 | 50.94499 | 13.96741 | 27084 ft | 481 kts | 325° |
| 2026-05-06 19:05 | 50.97371 | 13.94045 | 27609 ft | 479 kts | 325° |
| 2026-05-06 19:06 | 51.00238 | 13.91350 | 28166 ft | 478 kts | 325° |
| 2026-05-06 19:06 | 51.03099 | 13.88659 | 28717 ft | 477 kts | 325° |
| 2026-05-06 19:06 | 51.05948 | 13.85971 | 29261 ft | 475 kts | 324° |
| 2026-05-06 19:06 | 51.08784 | 13.83287 | 29796 ft | 474 kts | 324° |
| 2026-05-06 19:07 | 51.11615 | 13.80598 | 30266 ft | 473 kts | 324° |
| 2026-05-06 19:07 | 51.14432 | 13.77921 | 30720 ft | 471 kts | 324° |
| 2026-05-06 19:07 | 51.17246 | 13.75251 | 31187 ft | 470 kts | 324° |
| 2026-05-06 19:07 | 51.20058 | 13.72579 | 31647 ft | 468 kts | 324° |
| 2026-05-06 19:08 | 51.22841 | 13.69927 | 32115 ft | 467 kts | 324° |
| 2026-05-06 19:08 | 51.25626 | 13.67271 | 32568 ft | 465 kts | 323° |
| 2026-05-06 19:08 | 51.28396 | 13.64620 | 33023 ft | 464 kts | 323° |
| 2026-05-06 19:08 | 51.31123 | 13.62006 | 33471 ft | 462 kts | 323° |
| 2026-05-06 19:09 | 51.33873 | 13.59368 | 33909 ft | 460 kts | 323° |
| 2026-05-06 19:09 | 51.36654 | 13.56700 | 34267 ft | 460 kts | 323° |
| 2026-05-06 19:09 | 51.39395 | 13.54067 | 34609 ft | 459 kts | 323° |
| 2026-05-06 19:09 | 51.42133 | 13.51429 | 34922 ft | 459 kts | 323° |
| 2026-05-06 19:10 | 51.44867 | 13.48792 | 35238 ft | 459 kts | 323° |
| 2026-05-06 19:10 | 51.47605 | 13.46147 | 35547 ft | 459 kts | 323° |
| 2026-05-06 19:10 | 51.50343 | 13.43495 | 35757 ft | 460 kts | 323° |
| 2026-05-06 19:11 | 51.55842 | 13.38164 | 35803 ft | 463 kts | 323° |
| 2026-05-06 19:11 | 51.61354 | 13.32813 | 35809 ft | 463 kts | 323° |
| 2026-05-06 19:12 | 51.66871 | 13.27441 | 35808 ft | 463 kts | 323° |
| 2026-05-06 19:12 | 51.72359 | 13.22085 | 35817 ft | 464 kts | 323° |
| 2026-05-06 19:13 | 51.77875 | 13.16665 | 35812 ft | 464 kts | 323° |
| 2026-05-06 19:13 | 51.82855 | 13.10218 | 35816 ft | 457 kts | 313° |
| 2026-05-06 19:14 | 51.87597 | 13.03341 | 35817 ft | 458 kts | 313° |
| 2026-05-06 19:14 | 51.92343 | 12.96450 | 35819 ft | 458 kts | 313° |
| 2026-05-06 19:15 | 51.97091 | 12.89543 | 35818 ft | 459 kts | 313° |
| 2026-05-06 19:15 | 52.01838 | 12.82619 | 35820 ft | 459 kts | 313° |
| 2026-05-06 19:16 | 52.06582 | 12.75672 | 35824 ft | 459 kts | 313° |
| 2026-05-06 19:16 | 52.11318 | 12.68695 | 35830 ft | 459 kts | 313° |
| 2026-05-06 19:17 | 52.16052 | 12.61714 | 35841 ft | 459 kts | 313° |
| 2026-05-06 19:17 | 52.20785 | 12.54722 | 35846 ft | 459 kts | 313° |
| 2026-05-06 19:18 | 52.25512 | 12.47711 | 35853 ft | 459 kts | 313° |
| 2026-05-06 19:18 | 52.30033 | 12.40397 | 35855 ft | 456 kts | 309° |
| 2026-05-06 19:19 | 52.34389 | 12.32908 | 35290 ft | 455 kts | 312° |
| 2026-05-06 19:19 | 52.36708 | 12.29392 | 34697 ft | 455 kts | 313° |
| 2026-05-06 19:19 | 52.39055 | 12.25926 | 34137 ft | 454 kts | 314° |
| 2026-05-06 19:19 | 52.41391 | 12.22555 | 33531 ft | 454 kts | 314° |
| 2026-05-06 19:20 | 52.43773 | 12.19160 | 32822 ft | 454 kts | 315° |
| 2026-05-06 19:20 | 52.46162 | 12.15763 | 32061 ft | 455 kts | 314° |
| 2026-05-06 19:20 | 52.48553 | 12.12346 | 31294 ft | 457 kts | 314° |
| 2026-05-06 19:20 | 52.50945 | 12.08898 | 30520 ft | 458 kts | 314° |
| 2026-05-06 19:21 | 52.53370 | 12.05386 | 29715 ft | 460 kts | 314° |
| 2026-05-06 19:21 | 52.55740 | 12.01942 | 28793 ft | 461 kts | 314° |
| 2026-05-06 19:21 | 52.58144 | 11.98436 | 27864 ft | 462 kts | 314° |
| 2026-05-06 19:21 | 52.60551 | 11.94916 | 26941 ft | 463 kts | 314° |
| 2026-05-06 19:22 | 52.62962 | 11.91387 | 26001 ft | 464 kts | 314° |
| 2026-05-06 19:22 | 52.65421 | 11.87919 | 25039 ft | 467 kts | 316° |
| 2026-05-06 19:22 | 52.67964 | 11.84584 | 24282 ft | 469 kts | 319° |
| 2026-05-06 19:22 | 52.70575 | 11.81337 | 23991 ft | 471 kts | 320° |
| 2026-05-06 19:23 | 52.73209 | 11.78128 | 23818 ft | 470 kts | 320° |
| 2026-05-06 19:23 | 52.75838 | 11.74921 | 23857 ft | 470 kts | 320° |
| 2026-05-06 19:23 | 52.78453 | 11.71682 | 23851 ft | 470 kts | 319° |
| 2026-05-06 19:23 | 52.81063 | 11.68422 | 23627 ft | 469 kts | 320° |
| 2026-05-06 19:24 | 52.83659 | 11.65278 | 23383 ft | 454 kts | 321° |
| 2026-05-06 19:24 | 52.86184 | 11.62299 | 23113 ft | 438 kts | 321° |
| 2026-05-06 19:24 | 52.88634 | 11.59445 | 22841 ft | 424 kts | 321° |
| 2026-05-06 19:24 | 52.91011 | 11.56679 | 22565 ft | 411 kts | 321° |
| 2026-05-06 19:25 | 52.93308 | 11.53984 | 22304 ft | 400 kts | 321° |
| 2026-05-06 19:25 | 52.95543 | 11.51336 | 22051 ft | 390 kts | 321° |
| 2026-05-06 19:25 | 52.97728 | 11.48726 | 21777 ft | 385 kts | 320° |
| 2026-05-06 19:25 | 52.99888 | 11.46131 | 21511 ft | 382 kts | 320° |
| 2026-05-06 19:26 | 53.02037 | 11.43545 | 21253 ft | 381 kts | 320° |
| 2026-05-06 19:26 | 53.04179 | 11.40969 | 20996 ft | 379 kts | 320° |
| 2026-05-06 19:26 | 53.06314 | 11.38403 | 20741 ft | 378 kts | 321° |
| 2026-05-06 19:26 | 53.08439 | 11.35846 | 20480 ft | 377 kts | 321° |
| 2026-05-06 19:27 | 53.10560 | 11.33293 | 20235 ft | 375 kts | 321° |
| 2026-05-06 19:27 | 53.12670 | 11.30750 | 19992 ft | 374 kts | 321° |
| 2026-05-06 19:27 | 53.14775 | 11.28208 | 19743 ft | 373 kts | 321° |
| 2026-05-06 19:27 | 53.16872 | 11.25674 | 19499 ft | 372 kts | 321° |
| 2026-05-06 19:28 | 53.18960 | 11.23151 | 19254 ft | 371 kts | 321° |
| 2026-05-06 19:28 | 53.21051 | 11.20626 | 18813 ft | 372 kts | 321° |
| 2026-05-06 19:28 | 53.23152 | 11.18085 | 18253 ft | 372 kts | 321° |
| 2026-05-06 19:28 | 53.25101 | 11.15363 | 17900 ft | 360 kts | 309° |
| 2026-05-06 19:29 | 53.26471 | 11.11960 | 17432 ft | 349 kts | 291° |
| 2026-05-06 19:29 | 53.27163 | 11.08135 | 16918 ft | 342 kts | 278° |
| 2026-05-06 19:29 | 53.27613 | 11.04239 | 16388 ft | 341 kts | 278° |
| 2026-05-06 19:29 | 53.28057 | 11.00365 | 15879 ft | 338 kts | 278° |
| 2026-05-06 19:30 | 53.28497 | 10.96520 | 15387 ft | 336 kts | 278° |
| 2026-05-06 19:30 | 53.28933 | 10.92702 | 14897 ft | 334 kts | 278° |
| 2026-05-06 19:30 | 53.29364 | 10.88904 | 14415 ft | 331 kts | 278° |
| 2026-05-06 19:30 | 53.29793 | 10.85140 | 13955 ft | 329 kts | 279° |
| 2026-05-06 19:31 | 53.30219 | 10.81396 | 13450 ft | 327 kts | 279° |
| 2026-05-06 19:31 | 53.30645 | 10.77670 | 12910 ft | 326 kts | 279° |
| 2026-05-06 19:31 | 53.31490 | 10.70246 | 11855 ft | 324 kts | 279° |
| 2026-05-06 19:32 | 53.31899 | 10.66605 | 11470 ft | 321 kts | 279° |
| 2026-05-06 19:32 | 53.32310 | 10.62913 | 11224 ft | 324 kts | 279° |
| 2026-05-06 19:32 | 53.32722 | 10.59202 | 10974 ft | 324 kts | 279° |
| 2026-05-06 19:32 | 53.33136 | 10.55493 | 10729 ft | 324 kts | 279° |
| 2026-05-06 19:33 | 53.33551 | 10.51787 | 10480 ft | 324 kts | 279° |
| 2026-05-06 19:33 | 53.33965 | 10.48075 | 10235 ft | 323 kts | 279° |
| 2026-05-06 19:33 | 53.34370 | 10.44426 | 9985 ft | 315 kts | 279° |
| 2026-05-06 19:33 | 53.34761 | 10.40883 | 9831 ft | 304 kts | 279° |
| 2026-05-06 19:34 | 53.35136 | 10.37473 | 9702 ft | 293 kts | 279° |
| 2026-05-06 19:34 | 53.35498 | 10.34182 | 9570 ft | 282 kts | 280° |
| 2026-05-06 19:34 | 53.35844 | 10.31007 | 9429 ft | 273 kts | 280° |
| 2026-05-06 19:34 | 53.36179 | 10.27937 | 9307 ft | 263 kts | 280° |
| 2026-05-06 19:35 | 53.36491 | 10.25067 | 9173 ft | 259 kts | 280° |
| 2026-05-06 19:35 | 53.36811 | 10.22109 | 9038 ft | 258 kts | 280° |
| 2026-05-06 19:35 | 53.37127 | 10.19163 | 8908 ft | 257 kts | 280° |
| 2026-05-06 19:35 | 53.37442 | 10.16223 | 8772 ft | 256 kts | 281° |
| 2026-05-06 19:36 | 53.37755 | 10.13294 | 8646 ft | 255 kts | 281° |
| 2026-05-06 19:36 | 53.38069 | 10.10367 | 8517 ft | 255 kts | 281° |
| 2026-05-06 19:36 | 53.38385 | 10.07446 | 8387 ft | 255 kts | 281° |
| 2026-05-06 19:36 | 53.38700 | 10.04529 | 8260 ft | 254 kts | 281° |
| 2026-05-06 19:37 | 53.39012 | 10.01617 | 8133 ft | 253 kts | 281° |
| 2026-05-06 19:37 | 53.39321 | 9.98717 | 8002 ft | 253 kts | 281° |
| 2026-05-06 19:37 | 53.39628 | 9.95820 | 7876 ft | 252 kts | 282° |
| 2026-05-06 19:37 | 53.39829 | 9.93911 | 7792 ft | 251 kts | 281° |
| 2026-05-06 19:38 | 53.40233 | 9.90055 | 7618 ft | 251 kts | 282° |
| 2026-05-06 19:38 | 53.40535 | 9.87183 | 7498 ft | 250 kts | 282° |
| 2026-05-06 19:38 | 53.40837 | 9.84312 | 7323 ft | 250 kts | 282° |
| 2026-05-06 19:38 | 53.41059 | 9.81438 | 7087 ft | 249 kts | 272° |
| 2026-05-06 19:39 | 53.40911 | 9.78558 | 6829 ft | 249 kts | 259° |
| 2026-05-06 19:39 | 53.40414 | 9.75778 | 6579 ft | 249 kts | 254° |
| 2026-05-06 19:39 | 53.40280 | 9.72948 | 6321 ft | 243 kts | 284° |
| 2026-05-06 19:39 | 53.41013 | 9.70467 | 6051 ft | 237 kts | 315° |
| 2026-05-06 19:40 | 53.42229 | 9.68602 | 5766 ft | 237 kts | 323° |
| 2026-05-06 19:40 | 53.43495 | 9.66889 | 5484 ft | 237 kts | 324° |
| 2026-05-06 19:40 | 53.44781 | 9.65174 | 5202 ft | 236 kts | 324° |
| 2026-05-06 19:40 | 53.46059 | 9.63459 | 5024 ft | 235 kts | 324° |
| 2026-05-06 19:41 | 53.47335 | 9.61738 | 5004 ft | 236 kts | 324° |
| 2026-05-06 19:41 | 53.48615 | 9.60011 | 5005 ft | 236 kts | 324° |
| 2026-05-06 19:41 | 53.49873 | 9.58233 | 4998 ft | 238 kts | 315° |
| 2026-05-06 19:41 | 53.50644 | 9.55780 | 5007 ft | 243 kts | 282° |
| 2026-05-06 19:42 | 53.50549 | 9.52954 | 5005 ft | 247 kts | 252° |
| 2026-05-06 19:42 | 53.49894 | 9.50286 | 4995 ft | 248 kts | 245° |
| 2026-05-06 19:42 | 53.49148 | 9.47673 | 5003 ft | 248 kts | 244° |
| 2026-05-06 19:42 | 53.48392 | 9.45067 | 4997 ft | 248 kts | 244° |
| 2026-05-06 19:43 | 53.47625 | 9.42472 | 4994 ft | 248 kts | 240° |
| 2026-05-06 19:43 | 53.46472 | 9.40370 | 4991 ft | 246 kts | 209° |
| 2026-05-06 19:43 | 53.44865 | 9.39563 | 5006 ft | 242 kts | 176° |
| 2026-05-06 19:43 | 53.43277 | 9.40259 | 4999 ft | 235 kts | 144° |
| 2026-05-06 19:44 | 53.42117 | 9.42093 | 4996 ft | 229 kts | 116° |
| 2026-05-06 19:44 | 53.41715 | 9.44611 | 4996 ft | 225 kts | 89° |
| 2026-05-06 19:44 | 53.41749 | 9.47226 | 4997 ft | 225 kts | 85° |
| 2026-05-06 19:44 | 53.41891 | 9.49834 | 5001 ft | 225 kts | 81° |
| 2026-05-06 19:45 | 53.42130 | 9.52420 | 4998 ft | 224 kts | 77° |
| 2026-05-06 19:45 | 53.42473 | 9.54968 | 4999 ft | 224 kts | 76° |
| 2026-05-06 19:45 | 53.42836 | 9.57509 | 5001 ft | 224 kts | 73° |
| 2026-05-06 19:45 | 53.43560 | 9.59786 | 5010 ft | 223 kts | 51° |
| 2026-05-06 19:46 | 53.44565 | 9.61778 | 5001 ft | 224 kts | 50° |
| 2026-05-06 19:46 | 53.45550 | 9.63715 | 5002 ft | 210 kts | 50° |
| 2026-05-06 19:46 | 53.46466 | 9.65537 | 4844 ft | 200 kts | 50° |
| 2026-05-06 19:46 | 53.47339 | 9.67277 | 4629 ft | 189 kts | 51° |
| 2026-05-06 19:47 | 53.48159 | 9.68915 | 4362 ft | 178 kts | 50° |
| 2026-05-06 19:47 | 53.48675 | 9.69946 | 4202 ft | 171 kts | 50° |
| 2026-05-06 19:47 | 53.49425 | 9.71447 | 3967 ft | 166 kts | 51° |
| 2026-05-06 19:47 | 53.50165 | 9.72928 | 3750 ft | 165 kts | 51° |
| 2026-05-06 19:48 | 53.50903 | 9.74405 | 3525 ft | 164 kts | 51° |
| 2026-05-06 19:48 | 53.51634 | 9.75868 | 3300 ft | 163 kts | 51° |
| 2026-05-06 19:48 | 53.52362 | 9.77328 | 3074 ft | 163 kts | 51° |
| 2026-05-06 19:48 | 53.53087 | 9.78782 | 2858 ft | 162 kts | 51° |
| 2026-05-06 19:49 | 53.53809 | 9.80230 | 2634 ft | 162 kts | 51° |
| 2026-05-06 19:49 | 53.54532 | 9.81681 | 2419 ft | 162 kts | 52° |
| 2026-05-06 19:49 | 53.55250 | 9.83124 | 2193 ft | 160 kts | 51° |
| 2026-05-06 19:49 | 53.55963 | 9.84557 | 1982 ft | 160 kts | 51° |
| 2026-05-06 19:50 | 53.56645 | 9.85928 | 1761 ft | 146 kts | 51° |
| 2026-05-06 19:50 | 53.57273 | 9.87191 | 1575 ft | 136 kts | 51° |
| 2026-05-06 19:50 | 53.57869 | 9.88391 | 1375 ft | 132 kts | 51° |
| 2026-05-06 19:50 | 53.58456 | 9.89575 | 1192 ft | 131 kts | 51° |
| 2026-05-06 19:51 | 53.59029 | 9.90729 | 1016 ft | 130 kts | 51° |
| 2026-05-06 19:51 | 53.59609 | 9.91891 | 833 ft | 129 kts | 50° |
| 2026-05-06 19:51 | 53.60187 | 9.93059 | 643 ft | 129 kts | 49° |
| 2026-05-06 19:51 | 53.60763 | 9.94221 | 470 ft | 129 kts | 50° |
| 2026-05-06 19:52 | 53.61342 | 9.95389 | 297 ft | 129 kts | 50° |
| 2026-05-06 19:52 | 53.61915 | 9.96550 | 135 ft | 129 kts | 49° |
| 2026-05-06 19:52 | 53.62473 | 9.97676 | 47 ft | 114 kts | 49° |
| 2026-05-06 19:52 | 53.62790 | 9.98311 | 50 ft | 31 kts | 50° |
| 2026-05-06 19:53 | 53.62952 | 9.98639 | 49 ft | 42 kts | 50° |
| 2026-05-06 19:53 | 53.63082 | 9.98976 | 51 ft | 31 kts | 73° |
| 2026-05-06 19:53 | 53.63088 | 9.99226 | 50 ft | 1 kts | 95° |
| 2026-05-06 19:53 | 53.63088 | 9.99231 | 50 ft | 0 kts | 95° |
| 2026-05-06 19:54 | 53.63087 | 9.99248 | 50 ft | 3 kts | 95° |
| 2026-05-06 19:54 | 53.63086 | 9.99280 | 50 ft | 1 kts | 91° |
| 2026-05-06 19:54 | 53.63091 | 9.99350 | 50 ft | 11 kts | 77° |
| 2026-05-06 19:55 | 53.63129 | 9.99472 | 50 ft | 11 kts | 54° |
| 2026-05-06 19:55 | 53.63169 | 9.99560 | 48 ft | 9 kts | 52° |
| 2026-05-06 19:55 | 53.63197 | 9.99620 | 50 ft | 6 kts | 51° |
| 2026-05-06 19:55 | 53.63203 | 9.99631 | 50 ft | 1 kts | 50° |
| 2026-05-06 19:56 | 53.63221 | 9.99666 | 50 ft | 7 kts | 47° |
| 2026-05-06 19:56 | 53.63262 | 9.99740 | 50 ft | 10 kts | 47° |
| 2026-05-06 19:56 | 53.63313 | 9.99831 | 50 ft | 8 kts | 50° |
| 2026-05-06 19:56 | 53.63355 | 9.99916 | 51 ft | 11 kts | 50° |
| 2026-05-06 19:57 | 53.63399 | 10.00003 | 51 ft | 8 kts | 50° |
| 2026-05-06 19:57 | 53.63427 | 10.00094 | 51 ft | 9 kts | 83° |
| 2026-05-06 19:57 | 53.63405 | 10.00185 | 50 ft | 7 kts | 123° |
| 2026-05-06 19:57 | 53.63370 | 10.00224 | 51 ft | 4 kts | 165° |
| 2026-05-06 19:58 | 53.63348 | 10.00230 | 49 ft | 0 kts | 171° |
| 2026-05-06 19:58 | 53.63343 | 10.00236 | 50 ft | 2 kts | 149° |
| 2026-05-06 19:58 | 53.63334 | 10.00262 | 51 ft | 3 kts | 108° |
| 2026-05-06 19:58 | 53.63333 | 10.00297 | 51 ft | 0 kts | 92° |
| 2026-05-06 19:59 | 53.63332 | 10.00312 | 51 ft | 2 kts | 94° |
| 2026-05-06 19:59 | 53.63332 | 10.00329 | 51 ft | 0 kts | 89° |
| 2026-05-06 19:59 | 53.63333 | 10.00340 | 51 ft | 1 kts | 84° |
| 2026-05-06 19:59 | 53.63333 | 10.00347 | 51 ft | 1 kts | 85° |
| 2026-05-06 20:00 | 53.63333 | 10.00350 | 51 ft | 0 kts | 85° |